Flight Track Log - Related Links

Times and Time Zones

All times are in EDT time to prevent confusion due to time zone crossing. See the FWK227 flight status page for this flight to view local times or setup timezone preferences in your user account.

Time Position Orientation Groundspeed Altitude Reporting Facility
EDT Latitude Longitude Course Direction KTS MPH feet Rate Location/Type
Fri 03:49:38 PM 39.8833 -75.2000 57° Northeast 147 169 800  Level Philadelphia TRACON
Fri 03:50:20 PM 39.9000 -75.1667 57° Northeast 169 194 3,200 3,118 Climbing Philadelphia TRACON
Fri 03:51:20 PM 39.9333 -75.1333 37° Northeast 243 280 6,100 2,905 Climbing Philadelphia TRACON
Fri 03:52:26 PM 40.0167 -75.1333 360° North 297 342 9,300 1,950 Climbing Philadelphia TRACON
Fri 03:53:20 PM 40.0167 -75.2333 270° West 350 403 10,000 247 Climbing Philadelphia TRACON
Fri 03:55:16 PM 39.9436 -75.4469 246° West 367 422 10,000  Level New York Center
Fri 03:56:17 PM 39.9053 -75.5742 249° West 356 410 10,000 763 Level New York Center
Fri 03:57:14 PM 39.9067 -75.6881 271° West 345 397 11,500 1,881 Climbing New York Center
Fri 03:58:15 PM 39.9153 -75.8319 275° West 350 403 13,700 2,115 Climbing New York Center
Fri 03:59:16 PM 39.9181 -75.9567 272° West 356 410 15,800 1,967 Climbing New York Center
Fri 04:00:17 PM 39.8756 -76.0728 245° Southwest 344 396 17,700 1,563 Climbing New York Center
Fri 04:01:15 PM 39.8383 -76.1592 241° Southwest 344 396 18,900 1,311 Climbing New York Center
Fri 04:02:16 PM 39.7842 -76.2928 242° Southwest 349 402 20,300 1,328 Climbing New York Center
Fri 04:03:17 PM 39.7369 -76.4053 241° Southwest 354 407 21,600 1,311 Climbing New York Center
Fri 04:04:15 PM 39.6900 -76.5175 241° Southwest 354 407 22,900 1,323 Climbing New York Center
Fri 04:05:24 PM 39.6361 -76.6425 241° Southwest 363 418 24,400 1,292 Climbing Washington Center
Fri 04:06:25 PM 39.5892 -76.7547 242° Southwest 363 418 25,700 1,261 Climbing Washington Center
Fri 04:07:23 PM 39.5403 -76.8669 241° Southwest 363 418 26,900 1,261 Climbing Washington Center
Fri 04:08:24 PM 39.4975 -76.9739 243° Southwest 351 404 28,200 1,240 Climbing Washington Center
Fri 04:09:24 PM 39.4278 -77.0531 221° Southwest 343 395 29,400 1,190 Climbing Washington Center
Fri 04:10:25 PM 39.3619 -77.1378 225° Southwest 338 389 30,600 1,200 Climbing Washington Center
Fri 04:11:24 PM 39.3006 -77.2250 228° Southwest 338 389 31,800 1,220 Climbing Washington Center
Fri 04:12:23 PM 39.2389 -77.3119 228° Southwest 338 389 33,000 1,150 Climbing Washington Center
Fri 04:13:24 PM 39.1772 -77.3961 227° Southwest 338 389 34,100 1,041 Climbing Washington Center
Fri 04:14:24 PM 39.1133 -77.4831 227° Southwest 338 389 35,100 942 Climbing Washington Center
Fri 04:15:25 PM 39.0558 -77.5589 226° Southwest 338 389 36,000 1,008 Climbing Washington Center
Fri 04:16:23 PM 38.9875 -77.6558 228° Southwest 343 395 37,100 1,008 Climbing Washington Center
Fri 04:17:24 PM 38.9319 -77.7317 227° Southwest 343 395 38,000 443 Climbing Washington Center
Fri 04:18:25 PM 38.8614 -77.8256 226° Southwest 343 395 38,000  Level Washington Center
Fri 04:19:23 PM 38.7928 -77.9222 228° Southwest 358 412 38,000  Level Washington Center
Fri 04:20:23 PM 38.7328 -78.0028 226° Southwest 358 412 38,000  Level Washington Center
Fri 04:21:25 PM 38.6686 -78.0883 226° Southwest 358 412 38,000  Level Washington Center
Fri 04:22:25 PM 38.6019 -78.1792 227° Southwest 358 412 38,000  Level Washington Center
Fri 04:23:25 PM 38.5375 -78.2672 227° Southwest 353 406 38,000  Level Washington Center
Fri 04:24:23 PM 38.4731 -78.3525 226° Southwest 353 406 38,000  Level Washington Center
Fri 04:25:23 PM 38.4064 -78.4400 226° Southwest 348 400 38,000  Level Washington Center
Fri 04:26:24 PM 38.3417 -78.5275 227° Southwest 348 400 38,000  Level Washington Center
Fri 04:27:25 PM 38.2769 -78.6150 227° Southwest 343 395 38,000  Level Washington Center
Fri 04:28:23 PM 38.2183 -78.7050 230° Southwest 343 395 38,000  Level Washington Center
Fri 04:29:23 PM 38.1575 -78.7950 229° Southwest 343 395 38,000  Level Washington Center
Fri 04:30:23 PM 38.0922 -78.8978 231° Southwest 348 400 38,000  Level Washington Center
Fri 04:31:25 PM 38.0314 -78.9900 230° Southwest 348 400 38,000  Level Washington Center
Fri 04:32:25 PM 37.9703 -79.0819 230° Southwest 348 400 38,000  Level Washington Center
Fri 04:33:25 PM 37.9069 -79.1764 230° Southwest 348 400 38,000  Level Washington Center
Fri 04:34:23 PM 37.8522 -79.2606 231° Southwest 353 406 38,000  Level Washington Center
Fri 04:35:24 PM 37.7844 -79.3597 229° Southwest 353 406 38,000  Level Washington Center
Fri 04:36:24 PM 37.7144 -79.4639 230° Southwest 358 412 38,000  Level Washington Center
Fri 04:37:25 PM 37.6556 -79.5475 228° Southwest 363 418 38,000  Level Washington Center
Fri 04:38:24 PM 37.5775 -79.6353 222° Southwest 351 404 38,000  Level Washington Center
Fri 04:39:24 PM 37.5122 -79.7103 222° Southwest 351 404 38,000  Level Washington Center
Fri 04:40:25 PM 37.4386 -79.7900 221° Southwest 351 404 38,000  Level Washington Center
Fri 04:41:23 PM 37.3583 -79.8797 222° Southwest 351 404 38,000  Level Washington Center
Fri 04:43:55 PM 37.1744 -80.0719 220° Southwest 335 386 38,000  Level Atlanta Center
Fri 04:44:55 PM 37.1039 -80.1508 222° Southwest 335 386 38,000  Level Atlanta Center
Fri 04:45:55 PM 37.0333 -80.2272 221° Southwest 341 392 38,000  Level Atlanta Center
Fri 04:46:55 PM 36.9606 -80.3033 220° Southwest 341 392 38,000  Level Atlanta Center
Fri 04:47:55 PM 36.8939 -80.3689 218° Southwest 341 392 38,000  Level Atlanta Center
Fri 04:48:55 PM 36.8189 -80.4450 219° Southwest 341 392 38,000  Level Atlanta Center
Fri 04:49:55 PM 36.7417 -80.5106 214° Southwest 346 398 38,000  Level Atlanta Center
Fri 04:50:55 PM 36.6836 -80.6011 231° Southwest 336 387 38,000  Level Atlanta Center
Fri 04:51:55 PM 36.6494 -80.7139 249° West 341 392 38,000  Level Atlanta Center
Fri 04:52:55 PM 36.6128 -80.8292 248° West 351 404 38,000  Level Atlanta Center
Fri 04:53:55 PM 36.5803 -80.9417 250° West 356 410 38,000  Level Atlanta Center
Fri 04:54:55 PM 36.5497 -81.0567 252° West 350 403 38,000  Level Atlanta Center
Fri 04:55:55 PM 36.5186 -81.1583 249° West 350 403 38,000  Level Atlanta Center
Fri 04:56:55 PM 36.4761 -81.2967 249° West 350 403 38,000  Level Atlanta Center
Fri 04:57:55 PM 36.4411 -81.4117 249° West 355 409 38,000  Level Atlanta Center
Fri 04:58:55 PM 36.4017 -81.5264 247° West 355 409 38,000  Level Atlanta Center
Fri 04:59:55 PM 36.3664 -81.6383 249° West 360 414 38,000  Level Atlanta Center
Fri 05:00:55 PM 36.3247 -81.7556 246° West 360 414 38,000  Level Atlanta Center
Fri 05:01:55 PM 36.2853 -81.8700 247° West 353 406 38,000  Level Atlanta Center
Fri 05:02:55 PM 36.2475 -81.9817 247° West 358 412 38,000  Level Atlanta Center
Fri 05:03:55 PM 36.2056 -82.0961 246° West 358 412 38,000  Level Atlanta Center
Fri 05:04:55 PM 36.1697 -82.2100 249° West 358 412 38,000  Level Atlanta Center
Fri 05:05:55 PM 36.1317 -82.3086 244° Southwest 358 412 38,000  Level Atlanta Center
Fri 05:06:55 PM 36.0936 -82.4225 248° West 358 412 38,000  Level Atlanta Center
Fri 05:07:55 PM 36.0533 -82.5364 246° West 363 418 38,000  Level Atlanta Center
Fri 05:08:55 PM 35.9939 -82.6375 234° Southwest 363 418 38,000 -400 Level Atlanta Center
Fri 05:09:55 PM 35.9261 -82.7336 229° Southwest 368 423 37,200 -1,200 Descending Atlanta Center
Fri 05:10:55 PM 35.8603 -82.8269 229° Southwest 374 430 35,600 -1,100 Descending Atlanta Center
Fri 05:11:55 PM 35.7986 -82.9172 230° Southwest 362 417 35,000 -300 Descending Atlanta Center
Fri 05:12:55 PM 35.7347 -83.0078 229° Southwest 355 409 35,000 -100 Level Atlanta Center
Fri 05:13:55 PM 35.6689 -83.1058 230° Southwest 365 420 34,800 -1,200 Descending Atlanta Center
Fri 05:14:55 PM 35.5986 -83.2036 229° Southwest 365 420 32,600 -2,200 Descending Atlanta Center
Fri 05:15:55 PM 35.5386 -83.2936 231° Southwest 361 415 30,400 -2,350 Descending Atlanta Center
Fri 05:16:55 PM 35.4683 -83.3936 229° Southwest 381 438 27,900 -2,450 Descending Atlanta Center
Fri 05:17:55 PM 35.4356 -83.5186 252° West 381 438 25,500 -1,950 Descending Atlanta Center
Fri 05:18:55 PM 35.4006 -83.6414 251° West 381 438 24,000 -800 Descending Atlanta Center
Fri 05:19:55 PM 35.3675 -83.7586 251° West 375 432 23,900 -750 Descending Atlanta Center
Fri 05:20:55 PM 35.3364 -83.8758 252° West 368 423 22,500 -1,400 Descending Atlanta Center
Fri 05:21:55 PM 35.3011 -83.9981 251° West 373 429 21,100 -1,250 Descending Atlanta Center
Fri 05:22:55 PM 35.2656 -84.1203 250° West 373 429 20,000 -550 Descending Atlanta Center
Fri 05:23:55 PM 35.2319 -84.2344 250° West 373 429 20,000  Level Atlanta Center
Fri 05:24:55 PM 35.1964 -84.3539 250° West 373 429 20,000  Level Atlanta Center
Fri 05:25:55 PM 35.1625 -84.4758 251° West 373 429 20,000  Level Atlanta Center
Fri 05:26:55 PM 35.1286 -84.5925 250° West 368 423 20,000  Level Atlanta Center
Fri 05:27:55 PM 35.0656 -84.6908 232° Southwest 368 423 20,000  Level Atlanta Center
Fri 05:28:55 PM 34.9550 -84.7153 190° South 356 410 20,000  Level Atlanta Center
Fri 05:29:55 PM 34.8419 -84.7372 189° South 380 437 20,000  Level Atlanta Center
Fri 05:30:55 PM 34.7314 -84.7567 159° South 396 456 20,000  Level Atlanta Center
Fri 05:31:00 PM 34.7452 -84.6931 159° South  Level Estimated
Fri 05:31:55 PM 34.6122 -84.7808 189° South 403 464 20,000  Level Atlanta Center
Fri 05:32:55 PM 34.5119 -84.8000 189° South 388 447 17,500 -2,700 Descending Atlanta Center
Fri 05:33:55 PM 34.4139 -84.8169 188° South 366 421 14,600 -2,950 Descending Atlanta Center
Fri 05:34:55 PM 34.3261 -84.8361 190° South 339 390 11,600 -2,750 Descending Atlanta Center
Fri 05:35:55 PM 34.2444 -84.8531 190° South 314 361 9,100 -1,400 Descending Atlanta Center
Fri 05:36:55 PM 34.1906 -84.8072 145° Southeast 243 280 8,800 -1,200 Descending Atlanta Center
Fri 05:37:55 PM 34.1472 -84.7367 127° Southeast 241 277 6,700 -1,400 Descending Atlanta Center
Fri 05:38:55 PM 34.1142 -84.6786 125° Southeast 248 285 6,000 -500 Descending Atlanta Center
Fri 05:39:55 PM 34.0789 -84.6181 125° Southeast 234 269 5,700 -600 Descending Atlanta Center
Fri 05:40:55 PM 34.0458 -84.5603 125° Southeast 223 257 4,800 -1,150 Descending Atlanta Center
Fri 05:41:55 PM 34.0106 -84.5075 129° Southeast 212 244 3,400 -900 Descending Atlanta Center
Fri 05:42:55 PM 33.9667 -84.4544 135° Southeast 204 235 3,000 150 Descending Atlanta Center
Fri 05:43:55 PM 33.9147 -84.4544 180° South 175 201 3,700 335 Climbing Atlanta Center
Fri 05:45:54 PM 33.9000 -84.5500 260° West 205 236 4,000 67 Climbing Atlanta TRACON
Fri 05:46:54 PM 33.9167 -84.6167 287° West 198 228 3,900 -500 Descending Atlanta TRACON
Fri 05:47:54 PM 33.9667 -84.6000 15° North 188 216 3,000 -600 Descending Atlanta TRACON
Fri 05:48:54 PM 33.9833 -84.5500 68° East 178 205 2,700 -300 Descending Atlanta TRACON
Fri 05:50:00 PM 33.9552 -84.4327 129° Southeast  Level FlightAware Approximate
Fri 05:57:00 PM 33.8667 -84.3000 129° Southeast  Level FlightAware Approximate
Fri 05:58:00 PM 33.8756 -84.3020 129° Southeast  Level Estimated

Login

Don't have an account? Register now (free) for customized features, flight alerts, and more!